Terminal Aerodrome Forecast
Issued by NWS

Home | Current Version | Previous Version | Text Only | Print | Product List | Glossary On
Versions: 1 2 3 4 5 6 7 8 9 10 11 12 13 14 15 16 17 18 19 20 21 22 23
000
FTUS41 KBTV 290537
TAFSLK
TAF
KSLK 290537Z 2906/3006 16006KT P6SM BKN120
     FM291100 16009KT P6SM VCSH BKN080
     FM291400 16010KT P6SM -SHRA OVC045
     FM291500 16010KT 5SM -SHRA BR OVC025
     FM292200 17010KT P6SM VCSH BKN025
     FM292300 18009KT P6SM VCSH BKN035
     FM300000 18009KT P6SM SCT035=

USA.gov is the U.S. government's official web portal to all federal, state and local government web resources and services.